Time;durP1;ratioP1;P1;durP2;ratioP2;P2;SDS_P1;SDS_P2;PMS_P1;PMS_P2;Temp;Humidity;BMP_temperature;BMP_pressure;BME280_temperature;BME280_humidity;BME280_pressure;Samples;Min_cycle;Max_cycle;Signal;HPM_P1;HPM_P2
2021/08/13 00:00:15;;;;;;;14.20;11.57;;;;;;;24.33;52.18;99088.13;5067701;28;20494;-89
2021/08/13 00:02:41;;;;;;;15.95;11.77;;;;;;;24.25;52.82;99096.91;5071815;28;20037;-90
2021/08/13 00:05:08;;;;;;;14.88;11.52;;;;;;;24.09;52.90;99085.47;5071642;28;20048;-90
2021/08/13 00:07:34;;;;;;;17.55;10.77;;;;;;;24.23;52.47;99104.31;5071642;28;20040;-89
2021/08/13 00:09:59;;;;;;;17.30;12.02;;;;;;;24.16;52.72;99094.91;5070871;28;20049;-89
2021/08/13 00:12:27;;;;;;;13.32;10.82;;;;;;;24.14;52.86;99081.44;5071540;28;20052;-89
2021/08/13 00:14:56;;;;;;;16.80;11.30;;;;;;;24.28;52.98;99085.78;5071192;28;20032;-89
2021/08/13 00:17:22;;;;;;;16.90;10.75;;;;;;;24.19;52.80;99072.91;5067999;28;20037;-88
2021/08/13 00:19:48;;;;;;;20.55;11.20;;;;;;;24.22;53.14;99102.56;5074347;28;20043;-89
2021/08/13 00:22:14;;;;;;;18.67;10.75;;;;;;;24.22;53.50;99091.69;5075344;28;20032;-89
2021/08/13 00:24:40;;;;;;;16.25;10.45;;;;;;;24.23;53.64;99089.84;5075033;28;20072;-89
2021/08/13 00:27:06;;;;;;;16.92;11.05;;;;;;;24.18;53.94;99096.50;5073288;28;20036;-89
2021/08/13 00:29:34;;;;;;;12.75;10.20;;;;;;;24.11;53.92;99088.94;5074008;28;20036;-89
2021/08/13 00:32:00;;;;;;;14.55;10.98;;;;;;;24.06;53.84;99089.31;5070350;28;20036;-89
2021/08/13 00:34:25;;;;;;;15.40;10.30;;;;;;;24.05;53.96;99086.69;5073413;28;20666;-89
2021/08/13 00:36:51;;;;;;;16.15;11.20;;;;;;;23.96;53.90;99088.28;5073129;28;20037;-89
2021/08/13 00:39:17;;;;;;;15.65;10.45;;;;;;;23.93;53.78;99089.38;5073466;28;20029;-89
2021/08/13 00:41:43;;;;;;;16.05;11.35;;;;;;;23.77;53.41;99062.56;5075519;28;20044;-88
2021/08/13 00:44:09;;;;;;;16.13;10.73;;;;;;;23.93;53.68;99083.09;5074817;28;20463;-89
2021/08/13 00:46:36;;;;;;;15.90;11.07;;;;;;;23.90;53.62;99075.16;5071781;28;20032;-89
2021/08/13 00:49:02;;;;;;;15.57;10.90;;;;;;;23.89;53.59;99066.16;5075083;28;20041;-89
2021/08/13 00:51:28;;;;;;;16.27;11.18;;;;;;;24.12;53.63;99077.09;5073309;28;20450;-90
2021/08/13 00:53:54;;;;;;;20.10;11.18;;;;;;;24.13;52.98;99057.09;5074691;28;20037;-89
2021/08/13 00:56:20;;;;;;;13.32;10.75;;;;;;;24.30;53.42;99083.78;5074678;28;20036;-90
2021/08/13 00:58:47;;;;;;;14.18;11.00;;;;;;;24.28;53.48;99085.78;5074597;28;20214;-90
2021/08/13 01:01:13;;;;;;;14.30;10.07;;;;;;;24.13;53.63;99076.09;5071444;28;20028;-89
2021/08/13 01:03:41;;;;;;;15.15;11.57;;;;;;;24.02;53.64;99062.50;5074967;28;20064;-89
2021/08/13 01:06:08;;;;;;;14.70;10.73;;;;;;;24.10;53.95;99076.34;5070451;28;20045;-90
2021/08/13 01:08:33;;;;;;;16.20;11.18;;;;;;;23.94;54.60;99068.50;5073046;28;20045;-90
2021/08/13 01:11:05;;;;;;;14.30;10.73;;;;;;;24.03;54.02;99085.94;5073018;28;20067;-89
2021/08/13 01:13:41;;;;;;;12.95;10.73;;;;;;;24.15;53.85;99083.16;5070554;28;20064;-89
2021/08/13 01:16:07;;;;;;;15.02;11.10;;;;;;;24.22;53.48;99083.53;5069378;28;20439;-89
2021/08/13 01:18:37;;;;;;;14.05;10.93;;;;;;;24.17;53.70;99075.75;5072511;28;20143;-89
2021/08/13 01:21:21;;;;;;;14.15;10.85;;;;;;;24.25;53.69;99090.59;5072628;28;20767;-90
2021/08/13 01:23:51;;;;;;;14.05;11.07;;;;;;;24.16;54.19;99098.47;5072751;28;20484;-90
2021/08/13 01:26:18;;;;;;;15.90;11.75;;;;;;;24.03;54.82;99091.38;5072558;28;20118;-89
2021/08/13 01:28:54;;;;;;;14.82;11.10;;;;;;;23.89;54.99;99089.75;5072896;28;20048;-89
2021/08/13 01:31:23;;;;;;;15.57;10.40;;;;;;;23.86;55.33;99106.28;5068903;28;20098;-89
2021/08/13 01:33:54;;;;;;;13.95;10.70;;;;;;;23.80;55.45;99102.19;5071527;28;20041;-89
2021/08/13 01:36:22;;;;;;;16.65;11.07;;;;;;;23.73;55.50;99095.47;5072889;28;20394;-89
2021/08/13 01:38:48;;;;;;;14.43;11.10;;;;;;;23.74;55.73;99091.75;5072855;28;20040;-89
2021/08/13 01:41:15;;;;;;;16.33;10.43;;;;;;;23.71;55.31;99075.72;5073550;28;20047;-89
2021/08/13 01:43:43;;;;;;;14.02;10.90;;;;;;;23.96;54.81;99096.44;5072744;28;20040;-89
2021/08/13 01:46:10;;;;;;;14.30;11.10;;;;;;;23.93;54.67;99080.38;5068817;28;20375;-89
2021/08/13 01:48:37;;;;;;;15.30;11.23;;;;;;;23.97;54.71;99096.31;5071400;28;20048;-89
2021/08/13 01:51:05;;;;;;;13.98;10.43;;;;;;;24.07;54.10;99098.31;5072296;28;20575;-89
2021/08/13 01:53:32;;;;;;;16.08;10.27;;;;;;;24.13;54.11;99087.84;5071502;28;20063;-89
2021/08/13 01:55:59;;;;;;;14.88;10.55;;;;;;;24.07;53.88;99076.59;5072258;28;20041;-90
2021/08/13 01:58:26;;;;;;;16.65;9.88;;;;;;;24.19;53.75;99091.94;5069847;28;20082;-89
2021/08/13 02:00:53;;;;;;;17.52;10.48;;;;;;;24.02;53.71;99071.50;5069328;28;20499;-89
2021/08/13 02:03:19;;;;;;;15.77;10.77;;;;;;;24.07;54.44;99092.88;5072402;28;20848;-89
2021/08/13 02:05:48;;;;;;;14.70;10.25;;;;;;;23.98;54.59;99089.03;5072031;28;20036;-90
2021/08/13 02:08:16;;;;;;;14.27;10.57;;;;;;;23.89;55.20;99101.47;5071575;28;20043;-89
2021/08/13 02:10:44;;;;;;;14.38;10.80;;;;;;;23.71;55.22;99082.00;5071209;28;20083;-90
2021/08/13 02:13:11;;;;;;;13.40;10.27;;;;;;;23.73;55.62;99103.59;5069518;28;20036;-88
2021/08/13 02:15:39;;;;;;;14.25;10.65;;;;;;;23.66;55.87;99096.88;5068701;28;20127;-90
2021/08/13 02:18:08;;;;;;;13.13;10.37;;;;;;;23.61;56.12;99099.97;5071605;28;20440;-89
2021/08/13 02:20:37;;;;;;;14.90;10.90;;;;;;;23.46;56.31;99091.13;5071534;28;20689;-90
2021/08/13 02:23:03;;;;;;;15.55;10.88;;;;;;;23.43;56.38;99083.22;5070823;28;20047;-89
2021/08/13 02:25:30;;;;;;;16.55;11.57;;;;;;;23.44;56.70;99089.50;5070942;28;20444;-90
2021/08/13 02:27:56;;;;;;;14.57;10.27;;;;;;;23.36;56.99;99100.94;5069818;28;20040;-90
2021/08/13 02:30:22;;;;;;;13.30;10.70;;;;;;;23.16;57.14;99091.56;5068447;28;20778;-89
2021/08/13 02:32:48;;;;;;;15.07;11.20;;;;;;;23.12;57.82;99107.22;5071346;28;20032;-88
2021/08/13 02:35:14;;;;;;;16.52;10.70;;;;;;;22.91;57.56;99087.91;5071121;28;20041;-89
2021/08/13 02:37:46;;;;;;;14.38;10.25;;;;;;;22.97;57.84;99105.59;5071440;28;20734;-89
2021/08/13 02:40:15;;;;;;;15.38;10.50;;;;;;;22.67;58.27;99081.56;5069636;28;20036;-88
2021/08/13 02:42:47;;;;;;;12.65;10.10;;;;;;;22.72;58.57;99096.50;5071390;28;20036;-89
2021/08/13 02:45:17;;;;;;;15.07;10.55;;;;;;;22.68;58.75;99100.41;5068269;28;20561;-88
2021/08/13 02:47:43;;;;;;;16.73;10.90;;;;;;;22.62;58.98;99098.16;5071132;28;20037;-89
2021/08/13 02:50:11;;;;;;;14.55;10.55;;;;;;;22.55;58.93;99096.84;5071110;28;20078;-88
2021/08/13 02:52:44;;;;;;;15.02;11.32;;;;;;;22.43;59.18;99089.59;5069869;28;20113;-88
2021/08/13 02:55:13;;;;;;;15.55;10.23;;;;;;;22.49;59.67;99100.00;5068568;28;20087;-88
2021/08/13 02:57:40;;;;;;;14.20;10.55;;;;;;;22.38;59.79;99092.66;5071275;28;20494;-88
2021/08/13 03:00:09;;;;;;;15.45;10.88;;;;;;;22.40;59.86;99092.50;5067933;28;20075;-89
2021/08/13 03:02:36;;;;;;;16.13;10.57;;;;;;;22.32;59.87;99096.63;5071844;28;20082;-88
2021/08/13 03:05:04;;;;;;;15.02;11.02;;;;;;;22.16;60.57;99101.34;5071916;28;20033;-88
2021/08/13 03:07:31;;;;;;;15.25;11.23;;;;;;;22.15;61.00;99100.50;5071701;28;20044;-88
2021/08/13 03:09:57;;;;;;;17.40;11.90;;;;;;;22.17;60.46;99088.69;5071807;28;20044;-88
2021/08/13 03:12:24;;;;;;;13.80;10.85;;;;;;;22.09;60.70;99084.66;5071667;28;20044;-88
2021/08/13 03:14:51;;;;;;;17.80;11.10;;;;;;;22.12;60.71;99113.38;5071812;28;20040;-89
2021/08/13 03:17:19;;;;;;;14.48;11.32;;;;;;;22.09;61.21;99105.47;5068729;28;20036;-88
2021/08/13 03:19:45;;;;;;;17.40;12.07;;;;;;;21.95;61.14;99091.03;5071979;28;20056;-88
2021/08/13 03:22:12;;;;;;;15.35;11.65;;;;;;;21.91;61.21;99092.22;5071288;28;20090;-88
2021/08/13 03:24:38;;;;;;;15.68;11.60;;;;;;;21.98;61.43;99106.19;5071626;28;20075;-88
2021/08/13 03:27:04;;;;;;;14.68;11.25;;;;;;;21.78;61.12;99082.34;5071688;28;20060;-88
2021/08/13 03:29:30;;;;;;;18.60;11.30;;;;;;;21.85;61.38;99094.47;5071816;28;20968;-88
2021/08/13 03:31:58;;;;;;;17.70;11.20;;;;;;;21.92;60.99;99104.81;5068758;28;20218;-88
2021/08/13 03:34:26;;;;;;;15.27;11.13;;;;;;;21.91;61.29;99097.63;5071870;28;20037;-89
2021/08/13 03:36:52;;;;;;;15.57;11.60;;;;;;;21.82;61.40;99086.59;5071051;28;20262;-88
2021/08/13 03:39:18;;;;;;;15.73;10.77;;;;;;;21.95;61.63;99112.69;5071572;28;20424;-90
2021/08/13 03:41:43;;;;;;;16.83;11.15;;;;;;;21.94;60.98;99099.25;5072297;28;20040;-90
2021/08/13 03:44:09;;;;;;;19.45;11.20;;;;;;;22.08;60.81;99107.31;5071344;28;20060;-89
2021/08/13 03:46:35;;;;;;;14.00;10.68;;;;;;;22.24;60.52;99109.00;5068559;28;20044;-89
2021/08/13 03:49:01;;;;;;;13.52;10.95;;;;;;;22.46;59.23;99114.63;5071480;28;20681;-89
2021/08/13 03:51:28;;;;;;;15.13;11.48;;;;;;;22.58;59.03;99121.03;5071451;28;20036;-89
2021/08/13 03:53:54;;;;;;;14.90;10.32;;;;;;;22.46;58.99;99106.50;5073769;28;20128;-90
2021/08/13 03:56:20;;;;;;;15.90;11.20;;;;;;;22.46;59.21;99116.47;5075771;28;20048;-90
2021/08/13 03:58:46;;;;;;;15.25;11.45;;;;;;;22.38;59.49;99113.44;5075174;28;20040;-89
2021/08/13 04:01:12;;;;;;;17.48;11.13;;;;;;;22.24;59.75;99103.56;5072220;28;20120;-89
2021/08/13 04:03:37;;;;;;;16.95;11.50;;;;;;;22.29;60.32;99123.06;5075370;28;20570;-88
2021/08/13 04:06:03;;;;;;;14.57;11.15;;;;;;;22.19;60.08;99117.41;5075278;28;20111;-89
2021/08/13 04:08:31;;;;;;;15.80;11.52;;;;;;;22.19;60.29;99122.81;5074946;28;20032;-90
2021/08/13 04:10:56;;;;;;;17.75;11.32;;;;;;;22.22;60.41;99121.75;5072743;28;20425;-89
2021/08/13 04:13:22;;;;;;;14.57;11.40;;;;;;;22.16;60.68;99120.31;5075124;28;20147;-89
2021/08/13 04:15:48;;;;;;;16.58;11.38;;;;;;;22.06;61.11;99130.94;5072267;28;20036;-90
2021/08/13 04:18:14;;;;;;;15.32;11.27;;;;;;;21.97;61.59;99134.28;5074828;28;20036;-90
2021/08/13 04:20:40;;;;;;;16.20;10.95;;;;;;;21.90;61.40;99122.09;5074794;28;20424;-89
2021/08/13 04:23:06;;;;;;;15.55;11.60;;;;;;;21.96;61.15;99135.22;5074651;28;20447;-89
2021/08/13 04:25:33;;;;;;;16.30;11.25;;;;;;;21.86;61.37;99110.63;5074826;28;20037;-89
2021/08/13 04:27:59;;;;;;;17.67;11.60;;;;;;;22.04;61.34;99134.72;5074936;28;20051;-89
2021/08/13 04:30:25;;;;;;;17.92;12.80;;;;;;;21.93;61.73;99128.19;5071413;28;20040;-89
2021/08/13 04:32:50;;;;;;;14.98;12.13;;;;;;;21.87;61.78;99127.75;5074759;28;20465;-89
2021/08/13 04:35:19;;;;;;;16.25;11.32;;;;;;;21.90;61.83;99135.63;5074449;28;20612;-89
2021/08/13 04:37:47;;;;;;;14.85;11.05;;;;;;;21.87;62.21;99134.00;5074625;28;20036;-89
2021/08/13 04:40:13;;;;;;;15.02;11.15;;;;;;;21.79;61.72;99114.69;5074595;28;20044;-89
2021/08/13 04:42:43;;;;;;;16.75;12.15;;;;;;;21.77;61.91;99113.06;5074433;28;20944;-89
2021/08/13 04:45:15;;;;;;;18.50;11.82;;;;;;;21.90;62.36;99143.75;5072497;28;20036;-90
2021/08/13 04:47:44;;;;;;;15.57;12.48;;;;;;;21.85;62.18;99141.38;5073882;28;20517;-90
2021/08/13 04:53:07;;;;;;;15.13;11.80;;;;;;;21.86;62.39;99145.81;5091083;27;20386;-90
2021/08/13 04:55:33;;;;;;;18.23;11.48;;;;;;;21.91;62.21;99159.91;5090371;28;20040;-90
2021/08/13 04:57:59;;;;;;;18.20;11.40;;;;;;;21.90;62.03;99150.06;5090630;28;20090;-89
2021/08/13 05:00:25;;;;;;;15.98;11.82;;;;;;;22.03;61.73;99162.75;5087797;28;20445;-90
2021/08/13 05:02:50;;;;;;;16.77;12.02;;;;;;;21.97;62.30;99139.69;5090458;28;20063;-89
2021/08/13 05:08:13;;;;;;;18.00;12.40;;;;;;;22.20;61.99;99172.44;5109665;27;20866;-90
2021/08/13 05:10:39;;;;;;;17.63;12.10;;;;;;;22.19;62.30;99165.31;5109651;28;20040;-88
2021/08/13 05:13:04;;;;;;;16.23;11.05;;;;;;;22.26;61.98;99172.91;5109822;28;20086;-90
2021/08/13 05:15:30;;;;;;;15.95;12.07;;;;;;;22.33;61.85;99160.69;5108938;28;20131;-89
2021/08/13 05:17:56;;;;;;;16.90;12.20;;;;;;;22.31;62.50;99149.06;5111290;28;20028;-89
2021/08/13 05:20:24;;;;;;;16.27;12.20;;;;;;;22.48;61.60;99164.16;5109351;28;20036;-90
2021/08/13 05:22:49;;;;;;;16.40;11.63;;;;;;;22.49;61.67;99154.22;5107360;28;20040;-91
2021/08/13 05:25:17;;;;;;;17.98;11.80;;;;;;;22.55;60.80;99153.75;5109480;28;20131;-88
2021/08/13 05:27:42;;;;;;;16.58;11.98;;;;;;;22.78;60.09;99165.69;5109533;28;20093;-88
2021/08/13 05:30:10;;;;;;;16.20;11.50;;;;;;;23.17;58.89;99159.28;5108334;28;20052;-88
2021/08/13 05:32:38;;;;;;;15.95;11.38;;;;;;;23.51;57.79;99167.66;5111092;28;20512;-90
2021/08/13 05:35:04;;;;;;;16.73;11.07;;;;;;;23.89;56.82;99163.94;5108646;28;20739;-89
2021/08/13 05:37:30;;;;;;;14.25;11.40;;;;;;;24.09;56.31;99165.13;5109199;28;20384;-88
2021/08/13 05:39:56;;;;;;;19.05;11.25;;;;;;;24.06;56.42;99161.81;5109073;28;20032;-88
2021/08/13 05:42:23;;;;;;;15.48;10.98;;;;;;;24.09;55.93;99166.97;5109133;28;20134;-90
2021/08/13 05:44:49;;;;;;;16.75;11.25;;;;;;;24.23;55.35;99163.22;5109217;28;20039;-90
2021/08/13 05:47:14;;;;;;;15.15;11.60;;;;;;;24.14;55.12;99164.81;5107417;28;20335;-90
2021/08/13 05:49:40;;;;;;;15.98;11.00;;;;;;;24.08;55.53;99167.97;5109190;28;20141;-90
2021/08/13 05:52:07;;;;;;;14.52;10.60;;;;;;;24.01;55.26;99173.03;5111434;28;20068;-91
2021/08/13 05:54:33;;;;;;;20.35;12.13;;;;;;;24.01;55.24;99163.97;5111220;28;20031;-91
2021/08/13 05:56:59;;;;;;;13.98;11.45;;;;;;;24.01;55.30;99181.16;5110351;28;20054;-90
2021/08/13 05:59:26;;;;;;;14.55;11.10;;;;;;;23.74;56.40;99171.34;5109479;28;20489;-90
2021/08/13 06:01:52;;;;;;;18.85;12.45;;;;;;;23.85;56.38;99183.31;5107762;28;20043;-91
2021/08/13 06:04:18;;;;;;;17.27;12.18;;;;;;;23.66;56.10;99179.22;5110318;28;20085;-91
2021/08/13 06:06:44;;;;;;;18.90;11.40;;;;;;;23.86;56.21;99194.06;5108553;28;20537;-90
2021/08/13 06:09:09;;;;;;;14.57;10.75;;;;;;;23.82;55.53;99157.25;5108521;28;20040;-91
2021/08/13 06:11:35;;;;;;;16.70;11.45;;;;;;;23.95;55.72;99189.78;5108954;28;20039;-91
2021/08/13 06:14:01;;;;;;;19.08;11.52;;;;;;;23.76;56.39;99171.28;5110387;28;20040;-91
2021/08/13 06:16:28;;;;;;;18.08;11.80;;;;;;;24.30;55.01;99178.91;5107437;28;20036;-91
2021/08/13 06:18:54;;;;;;;14.10;10.98;;;;;;;24.73;53.62;99197.34;5100096;28;20044;-90
2021/08/13 06:21:20;;;;;;;14.55;11.02;;;;;;;25.14;52.81;99182.31;5094864;28;20040;-90
2021/08/13 06:23:46;;;;;;;17.88;11.48;;;;;;;25.47;52.16;99183.31;5094748;28;20028;-91
2021/08/13 06:26:12;;;;;;;15.18;11.40;;;;;;;25.94;50.99;99180.38;5094871;28;20093;-90
2021/08/13 06:28:38;;;;;;;13.80;11.30;;;;;;;26.27;49.25;99186.69;5094832;28;20032;-90
2021/08/13 06:31:04;;;;;;;17.20;11.18;;;;;;;26.62;49.38;99202.75;5091729;28;20046;-90
2021/08/13 06:33:31;;;;;;;14.13;11.25;;;;;;;26.85;48.18;99189.84;5094347;28;20039;-88
2021/08/13 06:35:57;;;;;;;14.80;11.35;;;;;;;27.15;48.32;99201.75;5094811;28;20036;-89
2021/08/13 06:38:23;;;;;;;15.20;11.70;;;;;;;27.18;47.44;99182.41;5095954;28;20040;-89
2021/08/13 06:40:49;;;;;;;13.05;10.52;;;;;;;27.24;47.46;99190.94;5096301;28;20392;-89
2021/08/13 06:43:15;;;;;;;15.13;10.57;;;;;;;27.53;46.42;99192.03;5094424;28;20115;-88
2021/08/13 06:45:40;;;;;;;14.30;10.77;;;;;;;27.50;46.25;99165.88;5091609;28;20130;-89
2021/08/13 06:48:06;;;;;;;15.88;11.25;;;;;;;27.70;45.99;99163.19;5094172;28;20035;-90
2021/08/13 06:50:34;;;;;;;14.35;10.63;;;;;;;27.95;45.61;99176.31;5094298;28;20040;-90
2021/08/13 06:52:59;;;;;;;20.25;11.85;;;;;;;28.08;45.43;99180.66;5096150;28;20040;-90
2021/08/13 06:55:25;;;;;;;15.30;10.75;;;;;;;28.21;45.33;99181.22;5096291;28;20448;-90
2021/08/13 06:57:51;;;;;;;15.60;10.65;;;;;;;28.27;44.76;99183.38;5096143;28;20063;-91
2021/08/13 07:00:17;;;;;;;16.85;11.07;;;;;;;28.43;44.25;99183.69;5093915;28;20016;-90
2021/08/13 07:02:47;;;;;;;15.95;10.57;;;;;;;28.52;44.17;99190.19;5095300;28;20512;-90
2021/08/13 07:05:14;;;;;;;16.45;11.30;;;;;;;28.60;43.40;99193.03;5094504;28;20162;-90
2021/08/13 07:07:41;;;;;;;21.08;11.68;;;;;;;28.54;43.43;99195.47;5094661;28;20401;-91
2021/08/13 07:10:09;;;;;;;17.17;11.00;;;;;;;28.44;43.63;99199.06;5096176;28;20127;-90
2021/08/13 07:12:35;;;;;;;18.65;11.68;;;;;;;28.72;43.16;99193.75;5095162;28;20040;-90
2021/08/13 07:15:01;;;;;;;15.77;10.90;;;;;;;28.75;42.78;99193.44;5093248;28;20047;-91
2021/08/13 07:17:27;;;;;;;14.25;11.18;;;;;;;29.10;42.28;99211.09;5095831;28;20048;-90
2021/08/13 07:19:53;;;;;;;16.10;11.18;;;;;;;29.33;42.20;99197.03;5096132;28;20036;-91
2021/08/13 07:22:18;;;;;;;18.45;10.98;;;;;;;29.54;40.65;99185.81;5095353;28;20032;-91
2021/08/13 07:24:46;;;;;;;17.15;10.75;;;;;;;29.90;41.19;99215.06;5095612;28;20043;-90
2021/08/13 07:27:11;;;;;;;19.20;12.18;;;;;;;29.92;40.70;99195.72;5095093;28;20036;-90
2021/08/13 07:29:37;;;;;;;17.77;10.80;;;;;;;29.91;39.75;99199.50;5093833;28;20559;-90
2021/08/13 07:32:03;;;;;;;17.38;11.30;;;;;;;30.33;40.21;99198.91;5091908;28;20159;-90
2021/08/13 07:34:29;;;;;;;13.77;10.85;;;;;;;30.48;40.20;99210.19;5093092;28;20298;-90
2021/08/13 07:36:55;;;;;;;14.77;11.00;;;;;;;30.41;40.07;99209.97;5095226;28;20036;-90
2021/08/13 07:39:21;;;;;;;15.38;10.68;;;;;;;30.07;39.80;99199.66;5093429;28;20424;-90
2021/08/13 07:41:48;;;;;;;16.05;11.38;;;;;;;29.69;40.43;99190.69;5095500;28;20579;-90
2021/08/13 07:44:14;;;;;;;16.83;10.90;;;;;;;29.66;40.60;99215.59;5095179;28;20036;-90
2021/08/13 07:46:40;;;;;;;19.17;11.23;;;;;;;30.10;40.15;99213.06;5091658;28;20113;-90
2021/08/13 07:49:05;;;;;;;15.27;11.52;;;;;;;30.46;39.25;99198.50;5093454;28;20062;-91
2021/08/13 07:51:32;;;;;;;14.82;10.88;;;;;;;30.92;38.22;99204.72;5093768;28;20040;-90
2021/08/13 07:53:58;;;;;;;15.98;10.77;;;;;;;31.18;37.22;99214.84;5094893;28;20400;-90
2021/08/13 07:56:24;;;;;;;17.08;11.00;;;;;;;31.48;36.31;99205.25;5094932;28;20024;-90
2021/08/13 07:58:51;;;;;;;15.93;10.43;;;;;;;31.61;36.31;99211.13;5095030;28;20062;-89
2021/08/13 08:01:16;;;;;;;17.73;10.57;;;;;;;30.80;37.79;99211.47;5089581;28;20032;-90
2021/08/13 08:03:42;;;;;;;18.67;11.00;;;;;;;31.23;37.08;99201.47;5093208;28;20040;-89
2021/08/13 08:06:08;;;;;;;12.13;9.90;;;;;;;31.73;35.91;99195.22;5092902;28;20070;-89
2021/08/13 08:08:34;;;;;;;15.85;10.88;;;;;;;32.43;34.15;99207.75;5094102;28;20067;-90
2021/08/13 08:11:00;;;;;;;14.75;10.52;;;;;;;32.27;33.97;99203.06;5093349;28;20036;-90
2021/08/13 08:13:25;;;;;;;14.98;9.70;;;;;;;32.03;33.09;99202.03;5093644;28;20500;-90
2021/08/13 08:15:53;;;;;;;16.88;10.50;;;;;;;31.87;33.83;99211.06;5091318;28;20047;-91
2021/08/13 08:18:20;;;;;;;16.35;10.05;;;;;;;31.47;34.20;99201.63;5092379;28;20493;-91
2021/08/13 08:20:46;;;;;;;14.15;10.70;;;;;;;31.42;34.60;99228.72;5093430;28;20790;-90
2021/08/13 08:23:12;;;;;;;15.82;10.88;;;;;;;31.25;35.01;99207.66;5094033;28;20108;-90
2021/08/13 08:25:38;;;;;;;14.50;9.52;;;;;;;31.45;32.46;99200.09;5094235;28;20445;-91
2021/08/13 08:28:05;;;;;;;15.80;9.50;;;;;;;31.03;32.62;99198.09;5094432;28;20043;-90
2021/08/13 08:30:31;;;;;;;13.10;9.80;;;;;;;31.25;32.75;99204.91;5090212;28;20036;-91
2021/08/13 08:32:58;;;;;;;11.55;9.23;;;;;;;31.19;33.81;99217.44;5092438;28;20457;-90
2021/08/13 08:35:24;;;;;;;15.05;9.38;;;;;;;31.17;34.00;99208.50;5092525;28;20105;-90
2021/08/13 08:37:52;;;;;;;16.88;10.60;;;;;;;31.31;33.95;99221.59;5092406;28;20040;-90
2021/08/13 08:40:21;;;;;;;;;;;;;;;31.25;33.69;99224.16;5092716;28;20065;-91
2021/08/13 08:42:48;;;;;;;15.48;9.75;;;;;;;31.38;33.52;99207.22;5092187;28;19916;-91
2021/08/13 08:45:13;;;;;;;12.13;9.32;;;;;;;31.71;32.81;99211.88;5089360;28;20123;-92
2021/08/13 08:47:41;;;;;;;13.23;9.75;;;;;;;32.04;31.33;99189.97;5092163;28;20119;-90
2021/08/13 08:50:10;;;;;;;16.83;10.03;;;;;;;32.38;30.20;99200.00;5091142;28;20040;-89
2021/08/13 08:52:39;;;;;;;11.57;8.57;;;;;;;32.57;30.20;99197.97;5092524;28;20490;-89
2021/08/13 08:55:07;;;;;;;13.40;9.20;;;;;;;32.70;29.95;99201.94;5092517;28;20063;-89
2021/08/13 08:57:34;;;;;;;12.00;9.13;;;;;;;32.78;29.51;99180.91;5091863;28;20031;-88
2021/08/13 09:00:00;;;;;;;13.32;9.80;;;;;;;32.80;29.72;99199.00;5090120;28;20044;-89
2021/08/13 09:02:26;;;;;;;14.73;9.02;;;;;;;33.00;30.09;99190.34;5092243;28;20058;-89
2021/08/13 09:04:53;;;;;;;13.30;9.60;;;;;;;32.85;29.59;99209.47;5092502;28;20138;-91
2021/08/13 09:07:21;;;;;;;17.85;9.52;;;;;;;32.78;30.49;99208.47;5091971;28;20123;-91
2021/08/13 09:09:46;;;;;;;15.00;9.23;;;;;;;32.92;30.13;99200.34;5092263;28;20032;-91
2021/08/13 09:12:13;;;;;;;12.25;9.10;;;;;;;33.11;29.92;99212.06;5091834;28;20443;-91
2021/08/13 09:14:41;;;;;;;12.55;9.25;;;;;;;32.98;30.21;99182.25;5092365;28;20519;-92
2021/08/13 09:17:07;;;;;;;;;;;;;;;33.42;29.00;99208.50;5089259;28;20038;-90
2021/08/13 09:19:41;;;;;;;11.80;10.10;;;;;;;33.12;29.44;99202.75;5092173;28;19928;-89
2021/08/13 09:22:08;;;;;;;12.48;9.32;;;;;;;33.25;29.72;99192.03;5091497;28;20040;-89
2021/08/13 09:24:38;;;;;;;12.93;10.20;;;;;;;33.70;29.24;99192.41;5090872;28;20046;-90
2021/08/13 09:27:20;;;;;;;13.55;9.98;;;;;;;34.00;28.80;99189.81;5091536;28;20066;-91
2021/08/13 09:30:08;;;;;;;14.32;10.23;;;;;;;34.20;27.67;99193.88;5087723;28;20043;-92
2021/08/13 09:32:34;;;;;;;15.65;9.85;;;;;;;34.40;27.36;99191.47;5091423;28;20053;-90
2021/08/13 09:35:01;;;;;;;12.45;10.00;;;;;;;34.53;27.12;99188.94;5090365;28;20127;-91
2021/08/13 09:37:27;;;;;;;13.32;9.40;;;;;;;34.57;26.82;99192.22;5091635;28;20028;-90
2021/08/13 09:39:55;;;;;;;16.70;9.48;;;;;;;34.29;26.76;99191.91;5093532;28;20043;-91
2021/08/13 09:42:22;;;;;;;16.65;9.23;;;;;;;34.19;26.83;99185.78;5093267;28;20036;-91
2021/08/13 09:44:59;;;;;;;11.98;9.50;;;;;;;34.31;26.42;99178.75;5089906;28;20044;-91
2021/08/13 09:47:37;;;;;;;9.98;8.50;;;;;;;34.29;25.54;99197.44;5090358;28;20036;-90
2021/08/13 09:50:04;;;;;;;13.10;9.00;;;;;;;34.14;25.63;99200.13;5091535;28;20036;-91
2021/08/13 09:52:30;;;;;;;13.00;9.27;;;;;;;34.32;25.92;99197.06;5091734;28;20493;-90
2021/08/13 09:55:11;;;;;;;15.85;9.80;;;;;;;33.79;26.78;99196.84;5095619;28;20120;-91
2021/08/13 09:57:42;;;;;;;13.68;9.52;;;;;;;33.98;26.84;99190.00;5095437;28;20035;-91
2021/08/13 10:00:10;;;;;;;14.73;9.55;;;;;;;34.38;27.59;99185.28;5093432;28;20093;-93
2021/08/13 10:05:37;;;;;;;11.80;8.57;;;;;;;35.06;25.00;99182.59;5091356;27;20374;-90
2021/08/13 10:08:06;;;;;;;13.38;9.48;;;;;;;34.87;25.61;99195.91;5090140;28;20055;-93
2021/08/13 10:10:34;;;;;;;13.77;9.07;;;;;;;35.12;24.71;99192.91;5091252;28;20045;-90
2021/08/13 10:13:00;;;;;;;;;;;;;;;35.14;24.86;99191.69;5090281;28;20045;-91
2021/08/13 10:15:31;;;;;;;13.15;8.43;;;;;;;35.30;25.11;99196.16;5089163;28;19921;-91
2021/08/13 10:17:58;;;;;;;16.17;9.63;;;;;;;35.54;24.70;99192.25;5089551;28;20063;-92
2021/08/13 10:20:24;;;;;;;13.95;8.82;;;;;;;35.61;24.71;99192.34;5091204;28;20098;-91
2021/08/13 10:22:52;;;;;;;14.45;9.13;;;;;;;35.91;23.91;99179.31;5092152;28;20033;-93
2021/08/13 10:25:18;;;;;;;15.35;9.02;;;;;;;35.87;24.23;99160.53;5091369;28;20174;-91
2021/08/13 10:27:45;;;;;;;11.38;8.88;;;;;;;35.62;23.77;99165.53;5090773;28;20047;-93
2021/08/13 10:30:12;;;;;;;14.50;9.40;;;;;;;35.01;25.48;99163.81;5090769;28;20043;-92
2021/08/13 10:32:38;;;;;;;10.80;8.73;;;;;;;35.21;25.55;99175.19;5091026;28;20029;-90
2021/08/13 10:35:05;;;;;;;13.00;8.75;;;;;;;35.03;25.54;99160.88;5091894;28;20039;-91
2021/08/13 10:37:31;;;;;;;11.50;9.48;;;;;;;35.56;24.70;99175.47;5090956;28;20052;-91
2021/08/13 10:39:58;;;;;;;11.68;8.18;;;;;;;36.02;23.84;99172.41;5091049;28;20036;-92
2021/08/13 10:42:27;;;;;;;12.00;8.10;;;;;;;36.06;23.08;99162.66;5090628;28;20045;-92
2021/08/13 10:45:00;;;;;;;17.05;8.15;;;;;;;35.93;24.02;99160.59;5087514;28;20060;-90
2021/08/13 10:47:30;;;;;;;10.85;8.55;;;;;;;36.13;23.63;99171.97;5089150;28;20093;-90
2021/08/13 10:49:57;;;;;;;11.70;8.18;;;;;;;35.96;23.59;99157.47;5089287;28;20512;-91
2021/08/13 10:52:35;;;;;;;10.17;7.93;;;;;;;35.49;23.76;99166.22;5088604;28;20136;-91
2021/08/13 10:55:03;;;;;;;13.40;8.68;;;;;;;35.63;24.15;99172.78;5087987;28;20440;-91
2021/08/13 10:57:55;;;;;;;10.98;8.35;;;;;;;35.91;24.25;99157.19;5089913;28;20048;-91
2021/08/13 11:00:21;;;;;;;11.10;8.38;;;;;;;35.72;23.97;99158.69;5076450;28;20044;-90
2021/08/13 11:03:16;;;;;;;10.65;8.32;;;;;;;35.81;23.65;99156.66;5090051;28;20041;-89
2021/08/13 11:05:55;;;;;;;13.00;8.32;;;;;;;35.95;23.64;99161.28;5088943;28;20898;-89
2021/08/13 11:08:22;;;;;;;11.38;8.20;;;;;;;35.78;23.70;99160.69;5088245;28;20044;-89
2021/08/13 11:10:56;;;;;;;14.40;8.32;;;;;;;35.94;23.33;99155.97;5089765;28;20401;-89
2021/08/13 11:13:23;;;;;;;14.85;8.57;;;;;;;35.94;23.29;99158.72;5088472;28;20139;-89
2021/08/13 11:15:49;;;;;;;11.80;8.00;;;;;;;36.13;22.89;99151.69;5077543;28;20098;-89
2021/08/13 11:18:35;;;;;;;16.08;8.10;;;;;;;36.05;22.74;99147.13;5074049;28;20045;-89
2021/08/13 11:21:03;;;;;;;11.95;7.97;;;;;;;36.02;23.56;99144.75;5076559;28;20082;-88
2021/08/13 11:23:29;;;;;;;11.80;8.40;;;;;;;35.81;22.98;99141.94;5076091;28;20048;-88
2021/08/13 11:25:57;;;;;;;11.65;8.50;;;;;;;35.69;23.66;99139.69;5075823;28;20042;-88
2021/08/13 11:28:23;;;;;;;;;;;;;;;36.06;23.60;99134.13;5074621;28;20044;-88